• Join FlightAware (Why Join?)
  • Login
  • US Flag 
10:16AM EDT


 

Airport Tracker/Info


-or-


 

Live Flight TrackerFlight Track Log ✈ RSP58 ✈ 03-May-2013 ✈ KSLN - KSAF

Flight Track Log - Related Links

Times and Time Zones

All times are in EDT time to prevent confusion due to time zone crossing. See the RSP58 flight status page for this flight to view local times or setup timezone preferences in your user account.

Time Position Orientation Groundspeed Altitude Reporting Facility
EDT Latitude Longitude Course Direction KTS MPH feet Rate Location/Type
12:55PM 38.8042 -97.6522 249° West 108 124 2,700  Level Kansas City Center
12:56PM 38.7856 -97.7125 248° West 182 209 4,700 2,100 Climbing Kansas City Center
12:57PM 38.7617 -97.7858 247° West 212 244 7,100 2,280 Climbing Kansas City Center
12:58PM 38.7369 -97.8586 246° West 225 259 9,500 2,100 Climbing Kansas City Center
12:59PM 38.7108 -97.9364 247° West 236 272 11,500 1,980 Climbing Kansas City Center
01:00PM 38.5494 -98.3578 249° West  Level FlightAware Approximate
01:00PM 38.6844 -98.0147 247° West 240 276 13,700  Level Kansas City Center
01:01PM 38.6578 -98.0950 247° West 245 282 15,700 1,920 Climbing Kansas City Center
01:02PM 38.6303 -98.1792 247° West 256 295 17,700 1,980 Climbing Kansas City Center
01:03PM 38.5961 -98.2828 247° West 264 304 19,800 1,860 Climbing Kansas City Center
01:04PM 38.5653 -98.3733 246° West 277 319 21,600 1,740 Climbing Kansas City Center
01:05PM 38.5342 -98.4672 247° West 288 331 23,400 1,620 Climbing Kansas City Center
01:06PM 38.5022 -98.5622 247° West 293 337 25,000 1,500 Climbing Kansas City Center
01:07PM 38.4692 -98.6583 246° West 298 343 26,600 1,380 Climbing Kansas City Center
01:08PM 38.4361 -98.7589 247° West 306 352 27,900 1,380 Climbing Kansas City Center
01:09PM 38.3931 -98.8814 246° West 316 364 29,500 1,260 Climbing Kansas City Center
01:10PM 38.3586 -98.9853 247° West 319 367 30,600 1,080 Climbing Kansas City Center
01:11PM 38.3231 -99.0906 247° West 323 372 31,800 1,080 Climbing Kansas City Center
01:12PM 38.2856 -99.1956 246° West 324 373 32,900 1,020 Climbing Kansas City Center
01:13PM 38.2497 -99.2997 246° West 323 372 34,000 900 Climbing Kansas City Center
01:14PM 38.2133 -99.4033 246° West 322 371 34,800 900 Climbing Kansas City Center
01:15PM 38.1686 -99.5314 246° West 325 374 35,900 540 Climbing Kansas City Center
01:16PM 38.1336 -99.6347 247° West 329 379 36,000  Climbing Kansas City Center
01:18PM 38.0886 -99.7617 246° West 348 400 36,000  Level Kansas City Center
01:19PM 38.0492 -99.8750 246° West 362 417 36,000  Level Kansas City Center
01:20PM 38.0086 -99.9886 246° West 367 422 36,000  Level Kansas City Center
01:21PM 37.9617 -100.1189 245° Southwest 366 421 36,000  Level Kansas City Center
01:22PM 37.9222 -100.2317 246° West 366 421 36,000  Level Kansas City Center
01:23PM 37.8758 -100.3611 246° West 363 418 36,000  Level Kansas City Center
01:24PM 37.8358 -100.4728 246° West 363 418 36,000  Level Kansas City Center
01:25PM 37.7886 -100.6033 245° Southwest 365 420 36,000  Level Kansas City Center
01:26PM 37.7486 -100.7150 246° West 365 420 36,000  Level Kansas City Center
01:27PM 37.7036 -100.8383 245° Southwest 371 427 36,000  Level Kansas City Center
01:28PM 37.6539 -100.9722 245° Southwest 374 430 36,000  Level Kansas City Center
01:29PM 37.6125 -101.0839 245° Southwest 370 426 36,000  Level Kansas City Center
01:30PM 37.5650 -101.2144 245° Southwest 368 423 36,000  Level Kansas City Center
01:31PM 37.5236 -101.3256 245° Southwest 367 422 36,000  Level Kansas City Center
01:32PM 37.4753 -101.4547 245° Southwest 366 421 36,000  Level Kansas City Center
01:33PM 37.4344 -101.5669 245° Southwest 367 422 36,000  Level Kansas City Center
01:34PM 37.3856 -101.6986 245° Southwest 370 426 36,000  Level Kansas City Center
01:35PM 37.3428 -101.8106 244° Southwest 371 427 36,000  Level Kansas City Center
01:36PM 37.2858 -101.9628 245° Southwest 376 433 36,000  Level Albuquerque Center
01:37PM 37.2428 -102.0764 245° Southwest 377 434 36,000  Level Albuquerque Center
01:38PM 37.1953 -102.2028 245° Southwest 377 434 36,000  Level Albuquerque Center
01:39PM 37.1531 -102.3172 245° Southwest 378 435 36,000  Level Albuquerque Center
01:40PM 37.0983 -102.4567 244° Southwest 380 437 36,000  Level Albuquerque Center
01:41PM 37.0553 -102.5650 244° Southwest 381 438 36,000  Level Albuquerque Center
01:43PM 37.0053 -102.6978 245° Southwest 378 435 36,000  Level Albuquerque Center
01:44PM 36.9608 -102.8100 244° Southwest 375 432 36,000  Level Albuquerque Center
01:45PM 36.9114 -102.9386 244° Southwest 370 426 36,000  Level Albuquerque Center
01:46PM 36.8678 -103.0494 244° Southwest 371 427 36,000  Level Albuquerque Center
01:47PM 36.8156 -103.1800 243° Southwest 375 432 36,000  Level Albuquerque Center
01:48PM 36.7722 -103.2914 243° Southwest 373 429 36,000  Level Albuquerque Center
01:49PM 36.7434 -103.3562 243° Southwest  Level FlightAware Approximate
01:49PM 36.7206 -103.4231 244° Southwest 375 432 36,000  Level Albuquerque Center
01:50PM 36.6767 -103.5347 244° Southwest 374 430 36,000  Level Albuquerque Center
01:51PM 36.6322 -103.6447 243° Southwest 374 430 36,000  Level Albuquerque Center
01:52PM 36.5772 -103.7797 243° Southwest 372 428 36,000  Level Albuquerque Center
01:53PM 36.5308 -103.8983 244° Southwest 376 433 36,000  Level Albuquerque Center
01:54PM 36.4844 -104.0153 244° Southwest 376 433 36,000  Level Albuquerque Center
01:55PM 36.4369 -104.1297 243° Southwest 372 428 36,000  Level Albuquerque Center
01:56PM 36.3903 -104.2442 243° Southwest 370 426 36,000  Level Albuquerque Center
01:57PM 36.3419 -104.3592 242° Southwest 373 429 36,000  Level Albuquerque Center
01:58PM 36.2953 -104.4747 243° Southwest 373 429 36,000 -120 Level Albuquerque Center
01:59PM 36.2414 -104.6075 243° Southwest 369 425 35,800 -600 Descending Albuquerque Center
02:00PM 36.1917 -104.7264 243° Southwest 379 436 34,800 -1,260 Descending Albuquerque Center
02:01PM 36.1422 -104.8469 243° Southwest 388 447 33,200 -2,040 Descending Albuquerque Center
02:02PM 36.0914 -104.9681 243° Southwest 393 452 30,600 -2,640 Descending Albuquerque Center
02:03PM 36.0428 -105.0825 242° Southwest 381 438 27,800 -2,880 Descending Albuquerque Center
02:04PM 35.9947 -105.2000 243° Southwest 381 438 24,700 -3,300 Descending Albuquerque Center
02:05PM 35.9378 -105.3322 242° Southwest 375 432 21,100 -3,060 Descending Albuquerque Center
02:06PM 35.8936 -105.4383 243° Southwest 355 409 18,400 -2,340 Descending Albuquerque Center
02:07PM 35.8719 -105.5456 256° West 336 387 16,300 -1,680 Descending Albuquerque Center
02:08PM 35.8506 -105.6569 257° West 333 383 15,000 -720 Descending Albuquerque Center
02:09PM 35.8306 -105.7594 256° West 314 361 14,900  Descending Albuquerque Center
02:10PM 35.8111 -105.8458 255° West 273 314 15,000 -540 Climbing Albuquerque Center
02:11PM 35.7772 -105.9231 242° Southwest 259 298 13,900 -1,260 Descending Albuquerque Center
02:13PM 35.7394 -105.9906 235° Southwest 205 236 12,400 -1,920 Descending Albuquerque Center
02:14PM 35.6997 -106.0222 213° Southwest 183 211 10,000 -2,340 Descending Albuquerque Center
02:15PM 35.6600 -106.0536 213° Southwest 174 200 7,600 -1,620 Descending Albuquerque Center
02:16PM 35.6283 -106.0781 212° Southwest 168 193 6,700 -900 Descending Albuquerque Center